TimeCST,TemperatureF,Dew PointF,Humidity,Sea Level PressureIn,VisibilityMPH,Wind Direction,Wind SpeedMPH,Gust SpeedMPH,PrecipitationIn,Events,Conditions,WindDirDegrees,DateUTC
12:53 AM,48.9,28.0,44,29.99,10.0,North,11.5,-,N/A,,Clear,10,2014-02-19 06:53:00
1:53 AM,46.9,28.0,48,29.97,10.0,North,5.8,-,N/A,,Clear,10,2014-02-19 07:53:00
2:53 AM,46.0,28.9,51,29.98,10.0,Calm,Calm,-,N/A,,Clear,0,2014-02-19 08:53:00
3:53 AM,39.9,28.9,65,29.99,10.0,Calm,Calm,-,N/A,,Clear,0,2014-02-19 09:53:00
4:53 AM,36.0,28.9,76,30.00,10.0,Calm,Calm,-,N/A,,Clear,0,2014-02-19 10:53:00
5:53 AM,32.0,28.0,85,30.01,10.0,Calm,Calm,-,N/A,,Clear,0,2014-02-19 11:53:00
6:53 AM,30.9,27.0,85,29.99,10.0,Calm,Calm,-,N/A,,Clear,0,2014-02-19 12:53:00
7:53 AM,35.1,30.0,82,30.00,10.0,Calm,Calm,-,N/A,,Clear,0,2014-02-19 13:53:00
8:53 AM,44.1,32.0,63,30.00,10.0,NNE,4.6,-,N/A,,Clear,20,2014-02-19 14:53:00
9:53 AM,48.9,33.1,54,29.97,10.0,Calm,Calm,-,N/A,,Clear,0,2014-02-19 15:53:00
10:53 AM,55.0,28.0,35,29.92,10.0,East,11.5,-,N/A,,Clear,100,2014-02-19 16:53:00
11:53 AM,60.1,23.0,24,29.89,10.0,ESE,16.1,21.9,N/A,,Mostly Cloudy,110,2014-02-19 17:53:00
12:53 PM,61.0,21.9,22,29.83,10.0,ESE,12.7,-,N/A,,Mostly Cloudy,120,2014-02-19 18:53:00
1:53 PM,63.0,24.1,23,29.77,10.0,ESE,12.7,-,N/A,,Overcast,120,2014-02-19 19:53:00
2:53 PM,66.9,42.1,40,29.70,10.0,SE,16.1,23.0,N/A,,Mostly Cloudy,140,2014-02-19 20:53:00
3:53 PM,66.9,52.0,59,29.67,7.0,SSE,19.6,25.3,N/A,,Overcast,160,2014-02-19 21:53:00
4:53 PM,64.9,54.0,68,29.65,7.0,SSE,16.1,25.3,N/A,,Overcast,160,2014-02-19 22:53:00
5:53 PM,63.0,54.0,72,29.65,7.0,South,19.6,26.5,N/A,,Overcast,170,2014-02-19 23:53:00
6:53 PM,61.0,55.0,81,29.63,6.0,SSE,12.7,21.9,N/A,,Haze,150,2014-02-20 00:53:00
7:15 PM,59.0,57.2,94,29.63,2.5,South,12.7,19.6,0.00,Rain,Light Rain,170,2014-02-20 01:15:00
7:18 PM,59.0,57.2,94,29.63,2.0,South,8.1,19.6,0.00,Rain,Light Rain,180,2014-02-20 01:18:00
7:32 PM,57.2,57.2,100,29.63,1.8,SSE,9.2,-,0.02,Rain,Light Rain,150,2014-02-20 01:32:00
7:44 PM,57.2,57.2,100,29.63,2.5,SSE,9.2,-,0.02,Rain,Light Rain,160,2014-02-20 01:44:00
7:53 PM,57.9,57.9,100,29.62,3.0,SSE,11.5,-,0.02,,Overcast,160,2014-02-20 01:53:00
8:53 PM,59.0,59.0,100,29.60,4.0,SSE,6.9,-,N/A,,Overcast,160,2014-02-20 02:53:00
9:19 PM,60.8,60.8,100,29.60,8.0,South,10.4,18.4,0.01,,Overcast,180,2014-02-20 03:19:00
9:53 PM,62.1,59.0,90,29.57,7.0,South,10.4,19.6,0.01,,Overcast,180,2014-02-20 03:53:00
10:53 PM,62.1,59.0,90,29.56,5.0,South,8.1,-,N/A,,Overcast,180,2014-02-20 04:53:00
11:26 PM,62.6,59.0,88,29.56,5.0,South,8.1,-,N/A,,Overcast,170,2014-02-20 05:26:00
11:53 PM,61.0,59.0,93,29.52,5.0,SSE,8.1,-,N/A,,Overcast,150,2014-02-20 05:53:00